Time;durP1;ratioP1;P1;durP2;ratioP2;P2;SDS_P1;SDS_P2;PMS_P1;PMS_P2;Temp;Humidity;BMP_temperature;BMP_pressure;BME280_temperature;BME280_humidity;BME280_pressure;Samples;Min_cycle;Max_cycle;Signal;HPM_P1;HPM_P2
2020/12/03 00:01:11;;;;;;;16.60;3.55;;;;;;;6.93;69.26;99509.69;4424188;32;20501;-78
2020/12/03 00:03:57;;;;;;;15.10;4.37;;;;;;;7.09;68.84;99500.44;4425664;32;20099;-77
2020/12/03 00:06:24;;;;;;;;;;;;;;;7.10;69.06;99485.22;4426399;32;20057;-76
2020/12/03 00:08:55;;;;;;;15.70;3.90;;;;;;;7.12;68.93;99493.97;4426166;32;21010;-76
2020/12/03 00:11:23;;;;;;;17.48;3.62;;;;;;;7.16;69.07;99483.44;4422960;32;20561;-75
2020/12/03 00:13:49;;;;;;;19.23;4.05;;;;;;;7.17;69.34;99471.81;4424557;32;20069;-75
2020/12/03 00:16:15;;;;;;;14.45;3.87;;;;;;;7.13;69.51;99470.34;4421681;32;20398;-76
2020/12/03 00:18:41;;;;;;;13.75;4.55;;;;;;;7.19;69.20;99458.16;4427078;32;20076;-78
2020/12/03 00:21:11;;;;;;;16.62;3.90;;;;;;;7.27;69.42;99461.53;4425379;32;20131;-77
2020/12/03 00:23:38;;;;;;;18.37;4.43;;;;;;;7.28;69.46;99443.50;4425275;32;20120;-76
2020/12/03 00:26:05;;;;;;;11.73;3.78;;;;;;;7.32;69.19;99450.56;4426562;32;20069;-77
2020/12/03 00:28:34;;;;;;;12.00;3.47;;;;;;;7.32;69.34;99441.38;4423759;32;20157;-76
2020/12/03 00:31:00;;;;;;;16.65;3.67;;;;;;;7.32;69.25;99446.97;4424754;32;20160;-78
2020/12/03 00:33:27;;;;;;;12.50;3.53;;;;;;;7.26;69.65;99429.97;4424228;32;20382;-77
2020/12/03 00:35:54;;;;;;;13.13;3.17;;;;;;;7.14;70.18;99429.94;4421706;32;20077;-74
2020/12/03 00:38:21;;;;;;;11.82;3.50;;;;;;;7.10;70.34;99413.28;4423383;32;20034;-75
2020/12/03 00:40:48;;;;;;;14.77;3.83;;;;;;;7.11;70.61;99411.25;4424851;32;20092;-78
2020/12/03 00:43:15;;;;;;;12.52;2.85;;;;;;;7.03;71.05;99398.75;4423187;32;20084;-78
2020/12/03 00:45:42;;;;;;;14.32;2.90;;;;;;;6.97;71.32;99401.28;4419053;32;20450;-76
2020/12/03 00:48:09;;;;;;;10.77;2.72;;;;;;;6.89;71.40;99390.78;4414075;32;20042;-77
2020/12/03 00:50:35;;;;;;;14.87;2.80;;;;;;;6.85;71.41;99376.94;4408073;32;20061;-78
2020/12/03 00:53:01;;;;;;;13.88;3.10;;;;;;;6.73;72.01;99362.91;4406046;32;20098;-76
2020/12/03 00:55:27;;;;;;;18.87;3.30;;;;;;;6.69;72.41;99357.44;4414117;32;20422;-75
2020/12/03 00:57:52;;;;;;;9.07;2.35;;;;;;;6.62;72.65;99351.25;4415730;32;20069;-77
2020/12/03 01:00:20;;;;;;;20.10;3.20;;;;;;;6.56;73.26;99348.25;4407752;32;20717;-77
2020/12/03 01:02:47;;;;;;;12.77;2.58;;;;;;;6.61;73.16;99344.91;4415185;32;20022;-76
2020/12/03 01:05:15;;;;;;;9.57;2.20;;;;;;;6.57;73.65;99343.44;4412162;32;20349;-75
2020/12/03 01:07:40;;;;;;;11.98;2.08;;;;;;;6.52;73.81;99344.78;4414732;32;20056;-77
2020/12/03 01:10:11;;;;;;;12.93;2.22;;;;;;;6.55;73.90;99338.31;4415573;32;20069;-75
2020/12/03 01:12:37;;;;;;;10.55;2.22;;;;;;;6.54;74.00;99341.53;4414122;32;20096;-76
2020/12/03 01:15:05;;;;;;;18.50;2.87;;;;;;;6.57;74.22;99315.50;4411239;32;20413;-76
2020/12/03 01:17:31;;;;;;;10.13;1.95;;;;;;;6.55;74.33;99312.38;4413116;32;20076;-76
2020/12/03 01:19:56;;;;;;;19.05;2.75;;;;;;;6.62;74.24;99301.75;4415675;32;20041;-75
2020/12/03 01:22:22;;;;;;;11.20;2.25;;;;;;;6.64;74.25;99299.31;4412890;32;20148;-78
2020/12/03 01:24:47;;;;;;;19.33;2.53;;;;;;;6.58;74.38;99297.50;4412164;32;20030;-77
2020/12/03 01:27:13;;;;;;;9.18;2.30;;;;;;;6.55;74.61;99296.38;4415616;32;21075;-78
2020/12/03 01:29:40;;;;;;;11.05;2.72;;;;;;;6.59;74.58;99316.63;4413614;32;20073;-78
2020/12/03 01:32:07;;;;;;;8.70;2.25;;;;;;;6.71;74.55;99310.25;4412224;32;20062;-76
2020/12/03 01:34:32;;;;;;;12.55;2.45;;;;;;;6.66;74.56;99318.41;4413567;32;20083;-76
2020/12/03 01:36:58;;;;;;;12.45;2.10;;;;;;;6.69;74.38;99307.13;4415058;32;20100;-77
2020/12/03 01:39:24;;;;;;;16.62;3.28;;;;;;;6.82;74.14;99296.75;4414867;32;20075;-78
2020/12/03 01:41:50;;;;;;;12.57;2.00;;;;;;;6.84;74.07;99276.72;4413066;32;20070;-77
2020/12/03 01:44:36;;;;;;;16.77;2.70;;;;;;;6.77;74.14;99254.56;4414141;32;20077;-74
2020/12/03 01:47:02;;;;;;;12.15;2.22;;;;;;;6.87;73.90;99245.06;4414677;32;20374;-77
2020/12/03 01:49:32;;;;;;;12.68;2.83;;;;;;;6.82;74.36;99240.03;4415253;32;20038;-78
2020/12/03 01:51:59;;;;;;;8.73;2.28;;;;;;;6.78;74.65;99242.16;4415760;32;20154;-76
2020/12/03 01:54:25;;;;;;;9.00;2.47;;;;;;;6.82;74.44;99231.63;4413853;32;20065;-77
2020/12/03 01:59:31;;;;;;;15.43;2.72;;;;;;;7.21;73.92;99203.91;3957588;32;15723563;-76
2020/12/03 02:01:58;;;;;;;7.15;2.20;;;;;;;7.21;73.92;99203.91;4438795;32;20038;-77
2020/12/03 02:04:24;;;;;;;10.45;2.28;;;;;;;6.86;74.44;99193.94;4422553;32;20069;-78
2020/12/03 02:07:03;;;;;;;14.60;2.42;;;;;;;6.83;74.56;99191.25;4438780;32;20098;-76
2020/12/03 02:09:29;;;;;;;12.45;2.90;;;;;;;6.90;74.34;99196.62;4434601;32;20425;-76
2020/12/03 02:11:55;;;;;;;17.35;2.85;;;;;;;6.85;74.58;99178.41;4436160;32;20037;-76
2020/12/03 02:14:21;;;;;;;11.43;2.70;;;;;;;6.92;74.34;99158.59;4434955;32;20453;-76
2020/12/03 02:16:47;;;;;;;12.95;2.90;;;;;;;6.92;74.14;99155.78;4436198;32;20051;-76
2020/12/03 02:19:33;;;;;;;14.18;2.90;;;;;;;6.93;73.89;99154.56;4433745;32;20027;-76
2020/12/03 02:22:03;;;;;;;14.40;2.20;;;;;;;6.95;73.95;99148.50;4439094;32;20055;-78
2020/12/03 02:24:32;;;;;;;15.85;3.20;;;;;;;6.97;74.39;99149.59;4440186;32;20060;-78
2020/12/03 02:26:58;;;;;;;15.80;2.67;;;;;;;6.97;74.34;99134.88;4435824;32;20061;-77
2020/12/03 02:29:23;;;;;;;12.20;2.45;;;;;;;6.93;74.53;99129.38;4434410;32;20469;-78
2020/12/03 02:31:49;;;;;;;16.98;2.53;;;;;;;6.89;74.80;99127.94;4435786;32;20083;-74
2020/12/03 02:34:15;;;;;;;14.13;2.70;;;;;;;6.81;75.13;99121.81;4440523;32;20029;-75
2020/12/03 02:36:41;;;;;;;10.77;2.33;;;;;;;6.87;75.01;99096.88;4434952;32;20037;-77
2020/12/03 02:39:07;;;;;;;10.15;2.67;;;;;;;6.79;75.16;99098.34;4435809;32;20087;-78
2020/12/03 02:41:33;;;;;;;9.90;1.98;;;;;;;6.75;75.29;99098.47;4434194;32;20022;-75
2020/12/03 02:43:59;;;;;;;15.07;2.10;;;;;;;6.68;75.43;99087.53;4434574;32;20096;-76
2020/12/03 02:46:25;;;;;;;12.57;2.08;;;;;;;6.74;75.27;99071.75;4433309;32;20030;-77
2020/12/03 02:48:51;;;;;;;15.57;3.85;;;;;;;6.68;75.36;99062.38;4436584;32;20131;-77
2020/12/03 02:51:17;;;;;;;11.07;2.20;;;;;;;6.70;75.49;99054.34;4434809;32;20164;-77
2020/12/03 02:53:42;;;;;;;5.78;1.90;;;;;;;6.69;75.38;99049.19;4432407;32;20073;-75
2020/12/03 02:56:11;;;;;;;12.05;2.03;;;;;;;6.68;75.59;99033.63;4433785;32;20919;-78
2020/12/03 02:58:37;;;;;;;8.43;2.20;;;;;;;6.73;75.10;99033.06;4434424;32;20025;-76
2020/12/03 03:01:05;;;;;;;11.60;2.17;;;;;;;6.63;75.79;99025.84;4434417;32;20069;-76
2020/12/03 03:03:31;;;;;;;11.90;1.85;;;;;;;6.66;75.61;99017.31;4434277;32;20065;-76
2020/12/03 03:05:57;;;;;;;14.18;2.83;;;;;;;6.63;75.69;99006.28;4436043;32;20213;-76
2020/12/03 03:08:24;;;;;;;11.00;2.35;;;;;;;6.67;75.63;98993.75;4431257;32;20466;-75
2020/12/03 03:10:50;;;;;;;9.80;1.90;;;;;;;6.72;75.32;98986.81;4424747;32;20022;-75
2020/12/03 03:13:16;;;;;;;22.42;3.12;;;;;;;6.66;75.73;98971.84;4424092;32;20417;-76
2020/12/03 03:15:42;;;;;;;9.07;2.05;;;;;;;6.66;75.53;98971.84;4423413;32;20085;-77
2020/12/03 03:18:08;;;;;;;20.37;2.53;;;;;;;6.78;75.16;98980.16;4424399;32;20089;-76
2020/12/03 03:20:33;;;;;;;12.40;2.30;;;;;;;6.85;75.09;98987.50;4428051;32;20093;-77
2020/12/03 03:22:59;;;;;;;12.63;2.15;;;;;;;6.91;74.66;98986.47;4423987;32;20088;-76
2020/12/03 03:25:25;;;;;;;12.37;1.92;;;;;;;6.91;74.49;98975.28;4424099;32;20026;-77
2020/12/03 03:27:50;;;;;;;10.23;2.10;;;;;;;6.98;74.31;98968.62;4422143;32;20073;-75
2020/12/03 03:30:17;;;;;;;9.40;1.98;;;;;;;6.92;74.45;98964.87;4422645;32;20421;-76
2020/12/03 03:32:43;;;;;;;9.63;2.10;;;;;;;6.94;74.48;98970.78;4424037;32;20128;-78
2020/12/03 03:35:08;;;;;;;6.03;1.80;;;;;;;6.90;74.54;98947.78;4422714;32;20065;-77
2020/12/03 03:37:34;;;;;;;9.00;2.05;;;;;;;6.91;74.50;98949.34;4423333;32;20439;-75
2020/12/03 03:40:04;;;;;;;15.80;3.28;;;;;;;6.94;74.44;98948.44;4425113;32;20126;-77
2020/12/03 03:42:31;;;;;;;7.78;1.85;;;;;;;7.03;74.31;98946.44;4423637;32;20051;-75
2020/12/03 03:44:56;;;;;;;6.28;1.80;;;;;;;7.00;74.27;98950.16;4422122;32;20069;-77
2020/12/03 03:47:23;;;;;;;10.93;1.83;;;;;;;7.02;74.10;98930.91;4423988;32;20091;-75
2020/12/03 03:49:48;;;;;;;8.32;1.37;;;;;;;7.07;73.77;98921.94;4422244;32;20037;-77
2020/12/03 03:52:14;;;;;;;6.28;1.35;;;;;;;7.04;73.90;98908.88;4422941;32;20021;-76
2020/12/03 03:54:40;;;;;;;8.45;1.70;;;;;;;7.04;74.12;98908.88;4425600;32;20126;-77
2020/12/03 03:57:06;;;;;;;7.15;1.27;;;;;;;7.01;74.08;98895.81;4426252;32;20081;-77
2020/12/03 03:59:31;;;;;;;5.47;1.30;;;;;;;7.11;73.91;98902.19;4407441;32;20459;-78
2020/12/03 04:01:57;;;;;;;8.93;1.92;;;;;;;6.95;74.43;98899.66;4419862;32;20427;-77
2020/12/03 04:04:23;;;;;;;6.70;1.90;;;;;;;6.96;74.59;98890.78;4425205;32;20082;-77
2020/12/03 04:06:48;;;;;;;7.00;1.27;;;;;;;7.00;74.73;98891.44;4420836;32;20023;-76
2020/12/03 04:09:14;;;;;;;10.65;1.62;;;;;;;6.97;75.11;98877.59;4421656;32;20485;-75
2020/12/03 04:11:43;;;;;;;11.88;1.12;;;;;;;6.97;75.18;98880.41;4425991;32;20022;-78
2020/12/03 04:14:09;;;;;;;4.60;1.17;;;;;;;6.99;75.33;98870.31;4424092;32;20060;-75
2020/12/03 04:16:34;;;;;;;10.80;1.90;;;;;;;6.98;74.91;98873.56;4426943;32;20086;-77
2020/12/03 04:19:00;;;;;;;9.63;1.67;;;;;;;6.95;75.02;98872.47;4424164;32;20139;-76
2020/12/03 04:21:26;;;;;;;9.35;1.58;;;;;;;6.85;75.70;98868.09;4420334;32;20180;-76
2020/12/03 04:23:51;;;;;;;5.85;1.17;;;;;;;6.93;75.36;98854.59;4406494;32;20099;-77
2020/12/03 04:26:17;;;;;;;6.07;1.00;;;;;;;6.92;75.43;98841.84;4409745;32;20037;-76
2020/12/03 04:28:43;;;;;;;4.43;1.37;;;;;;;6.89;75.27;98840.75;4421497;32;20045;-75
2020/12/03 04:31:10;;;;;;;2.55;0.93;;;;;;;6.93;75.47;98827.41;4421373;32;20061;-77
2020/12/03 04:33:36;;;;;;;5.22;1.30;;;;;;;6.94;75.38;98817.00;4422031;32;20017;-76
2020/12/03 04:36:02;;;;;;;2.15;1.00;;;;;;;6.82;75.76;98806.72;4424393;32;20061;-77
2020/12/03 04:38:27;;;;;;;6.28;1.23;;;;;;;6.79;75.73;98802.03;4424173;32;20084;-77
2020/12/03 04:40:53;;;;;;;8.10;1.30;;;;;;;6.75;76.05;98790.22;4421448;32;20065;-76
2020/12/03 04:43:30;;;;;;;4.40;0.80;;;;;;;6.75;76.04;98804.97;4422240;32;20095;-78
2020/12/03 04:46:05;;;;;;;5.40;0.80;;;;;;;6.76;75.54;98806.53;4422779;32;20465;-77
2020/12/03 04:51:41;;;;;;;2.67;0.77;;;;;;;7.17;74.38;98766.09;3999525;31;15014643;-78
2020/12/03 04:54:25;;;;;;;5.32;1.02;;;;;;;7.17;74.38;98766.09;4455463;32;20076;-77
2020/12/03 04:56:58;;;;;;;3.08;1.12;;;;;;;6.71;75.53;98745.63;4457404;32;20110;-77
2020/12/03 05:07:30;;;;;;;5.10;0.82;;;;;;;7.06;74.64;98718.25;3999010;31;15015703;-77
2020/12/03 05:12:40;;;;;;;3.30;0.90;;;;;;;7.08;74.33;98710.16;3986768;32;15021345;-77
2020/12/03 05:15:23;;;;;;;4.55;0.70;;;;;;;7.08;74.33;98710.16;4442852;32;20327;-78
2020/12/03 05:25:50;;;;;;;7.18;1.20;;;;;;;7.18;73.93;98659.37;3986120;32;15026151;-76
2020/12/03 05:33:43;;;;;;;5.30;1.30;;;;;;;7.21;73.77;98641.66;3985711;32;15023829;-75
2020/12/03 05:36:25;;;;;;;3.67;1.25;;;;;;;7.21;73.77;98641.66;4445022;32;20151;-76
2020/12/03 05:38:51;;;;;;;2.75;1.37;;;;;;;6.78;74.87;98635.56;4443740;32;20838;-74
2020/12/03 05:41:18;;;;;;;1.62;0.90;;;;;;;6.71;75.18;98631.06;4442578;32;20413;-77
2020/12/03 05:43:44;;;;;;;3.62;1.27;;;;;;;6.65;75.31;98624.53;4442340;32;20073;-76
2020/12/03 05:46:11;;;;;;;2.67;1.12;;;;;;;6.73;75.21;98627.78;4443191;32;20346;-78
2020/12/03 05:48:37;;;;;;;1.33;0.90;;;;;;;6.73;74.59;98608.22;4444510;32;20030;-77
2020/12/03 05:51:25;;;;;;;3.15;0.95;;;;;;;6.73;74.85;98605.44;4439115;32;20396;-78
2020/12/03 05:53:54;;;;;;;3.78;1.12;;;;;;;6.65;74.67;98596.56;4434594;32;20133;-75
2020/12/03 05:56:23;;;;;;;2.45;1.05;;;;;;;6.55;75.30;98583.84;4434443;32;20017;-77
2020/12/03 05:58:49;;;;;;;5.90;1.20;;;;;;;6.55;75.32;98580.25;4432451;32;20021;-78
2020/12/03 06:01:20;;;;;;;5.65;1.42;;;;;;;6.59;75.37;98578.09;4435229;32;20033;-76
2020/12/03 06:12:36;;;;;;;2.30;0.82;;;;;;;7.16;73.64;98550.00;3975739;32;15022594;-75
2020/12/03 06:18:19;;;;;;;4.68;1.20;;;;;;;7.15;74.06;98542.06;3985188;32;15022160;-79
2020/12/03 06:29:02;;;;;;;7.10;1.58;;;;;;;7.16;73.65;98515.66;3986678;32;15022842;-79
2020/12/03 06:37:22;;;;;;;4.80;2.53;;;;;;;7.32;73.48;98502.09;3998996;31;15017850;-75
2020/12/03 06:39:58;;;;;;;5.25;1.90;;;;;;;7.32;73.48;98502.09;4461776;32;20469;-77
2020/12/03 06:42:34;;;;;;;4.93;2.17;;;;;;;6.87;74.24;98495.81;4456173;32;20099;-79
2020/12/03 06:45:40;;;;;;;5.68;1.60;;;;;;;6.83;74.38;98479.19;4462979;32;20068;-78
2020/12/03 06:57:34;;;;;;;6.40;2.40;;;;;;;7.41;72.97;98459.31;4001789;31;15019449;-74
2020/12/03 07:06:05;;;;;;;7.65;2.95;;;;;;;7.44;72.94;98447.19;3985513;32;15022097;-79
2020/12/03 07:14:57;;;;;;;8.75;3.47;;;;;;;7.44;72.78;98419.97;3985494;32;15025171;-74
2020/12/03 07:23:02;;;;;;;10.98;3.90;;;;;;;7.64;72.19;98402.63;3985080;32;15024459;-78
2020/12/03 07:25:28;;;;;;;7.18;3.42;;;;;;;7.64;72.19;98402.63;4437676;32;20021;-79
2020/12/03 07:36:37;;;;;;;3.55;1.50;;;;;;;7.69;72.66;98385.94;3977883;32;15026208;-77
2020/12/03 07:39:10;;;;;;;4.55;1.62;;;;;;;7.69;72.66;98385.94;4424302;32;20096;-78
2020/12/03 07:42:02;;;;;;;5.68;1.62;;;;;;;7.29;73.61;98365.19;4425271;32;20073;-79
2020/12/03 07:49:55;;;;;;;3.03;1.47;;;;;;;7.72;73.84;98367.44;3981706;31;15015931;-76
2020/12/03 07:57:58;;;;;;;3.85;1.65;;;;;;;7.70;74.77;98339.91;3960724;32;15026079;-78
2020/12/03 08:03:02;;;;;;;4.82;1.80;;;;;;;7.43;74.81;98336.53;3952578;32;15724561;-80
2020/12/03 08:06:07;;;;;;;7.60;2.10;;;;;;;7.27;75.49;98328.53;4429387;32;20037;-75
2020/12/03 08:08:35;;;;;;;3.37;1.90;;;;;;;7.26;76.13;98321.38;4425251;32;20815;-77
2020/12/03 08:11:03;;;;;;;5.03;2.33;;;;;;;7.07;76.84;98317.13;4427405;32;20042;-74
2020/12/03 08:18:57;;;;;;;6.97;3.33;;;;;;;7.73;75.89;98296.19;3985341;31;15017106;-76
2020/12/03 08:21:36;;;;;;;4.18;2.65;;;;;;;7.73;75.89;98296.19;4450063;32;20109;-76
2020/12/03 08:24:02;;;;;;;6.53;3.62;;;;;;;7.19;76.79;98285.37;4450275;32;20100;-79
2020/12/03 08:26:28;;;;;;;12.43;3.53;;;;;;;7.15;77.64;98282.00;4448600;32;20044;-79
2020/12/03 08:28:54;;;;;;;8.93;3.30;;;;;;;7.16;77.83;98273.13;4451297;32;20085;-79
2020/12/03 08:31:23;;;;;;;6.40;3.47;;;;;;;7.21;77.33;98268.91;4445752;32;20072;-81
2020/12/03 08:33:55;;;;;;;9.48;4.82;;;;;;;7.11;77.26;98256.97;4448276;32;20162;-75
2020/12/03 08:36:24;;;;;;;9.35;4.47;;;;;;;7.20;77.78;98244.97;4430653;32;20354;-76
2020/12/03 08:38:54;;;;;;;9.45;4.45;;;;;;;7.15;77.51;98246.38;4448461;32;20061;-76
2020/12/03 08:41:26;;;;;;;10.48;4.12;;;;;;;7.20;77.20;98244.97;4434939;32;20171;-74
2020/12/03 08:43:54;;;;;;;13.43;4.20;;;;;;;7.17;77.34;98238.31;4441029;32;20397;-77
2020/12/03 08:46:23;;;;;;;22.73;5.18;;;;;;;7.17;77.48;98229.12;4442200;32;20461;-76
2020/12/03 08:48:49;;;;;;;7.75;3.78;;;;;;;7.16;77.87;98220.00;4446185;32;20100;-75
2020/12/03 08:51:16;;;;;;;9.98;4.18;;;;;;;7.08;78.17;98212.41;4444022;32;20076;-75
2020/12/03 08:53:44;;;;;;;12.13;4.43;;;;;;;7.25;77.54;98205.16;4435766;32;20155;-74
2020/12/03 09:01:45;;;;;;;8.50;5.07;;;;;;;7.78;75.76;98187.16;3974020;32;15075014;-73
2020/12/03 09:04:10;;;;;;;10.57;4.62;;;;;;;7.78;75.76;98187.16;4430031;32;20227;-75
2020/12/03 09:06:50;;;;;;;8.63;4.97;;;;;;;7.32;76.29;98172.00;4431410;32;20116;-75
2020/12/03 09:09:22;;;;;;;6.05;3.95;;;;;;;7.37;76.10;98173.38;4432583;32;20101;-74
2020/12/03 09:11:49;;;;;;;8.15;4.30;;;;;;;7.27;76.01;98160.72;4431370;32;20125;-73
2020/12/03 09:14:16;;;;;;;6.15;3.75;;;;;;;7.42;75.55;98161.50;4426901;32;20426;-73
2020/12/03 09:16:46;;;;;;;7.57;3.28;;;;;;;7.41;74.50;98151.56;4428993;32;20553;-75
2020/12/03 09:19:21;;;;;;;5.18;3.28;;;;;;;7.40;74.64;98139.59;4428299;32;20040;-74
2020/12/03 09:21:50;;;;;;;6.97;3.55;;;;;;;7.52;74.72;98135.00;4431343;32;20080;-75
2020/12/03 09:24:21;;;;;;;9.07;3.40;;;;;;;7.67;74.24;98138.59;4429619;32;20130;-73
2020/12/03 09:26:48;;;;;;;5.68;3.22;;;;;;;7.63;73.84;98130.38;4430218;32;20131;-75
2020/12/03 09:29:14;;;;;;;8.52;3.45;;;;;;;7.77;73.48;98123.25;4430299;32;20118;-76
2020/12/03 09:31:39;;;;;;;6.15;3.10;;;;;;;7.90;72.68;98118.13;4430218;32;20080;-76
2020/12/03 09:34:08;;;;;;;8.82;3.80;;;;;;;7.88;72.65;98103.81;4426369;32;20062;-78
2020/12/03 09:36:34;;;;;;;6.32;3.30;;;;;;;7.89;72.76;98094.19;4426762;32;20077;-74
2020/12/03 09:39:00;;;;;;;8.15;3.60;;;;;;;7.89;72.70;98088.59;4432937;32;20204;-76
2020/12/03 09:41:26;;;;;;;7.37;3.83;;;;;;;7.86;73.20;98087.50;4429905;32;20111;-73
2020/12/03 09:43:56;;;;;;;10.57;4.75;;;;;;;7.96;72.80;98079.78;4429212;32;20065;-73
2020/12/03 09:46:28;;;;;;;12.20;6.35;;;;;;;8.09;72.99;98069.81;4429408;32;20091;-76
2020/12/03 09:48:55;;;;;;;12.37;6.43;;;;;;;8.08;72.89;98064.69;4429413;32;20069;-73
2020/12/03 09:51:23;;;;;;;11.12;6.40;;;;;;;7.84;73.27;98055.66;4422258;32;20077;-74
2020/12/03 09:53:50;;;;;;;11.88;6.93;;;;;;;7.96;73.75;98043.38;4413283;32;20096;-76
2020/12/03 09:56:18;;;;;;;13.05;7.22;;;;;;;7.96;73.99;98046.19;4407224;32;20077;-75
2020/12/03 09:58:43;;;;;;;11.23;6.00;;;;;;;8.05;73.55;98024.44;4409791;32;20026;-74
2020/12/03 10:01:11;;;;;;;13.00;6.43;;;;;;;8.04;73.28;98031.28;4413568;32;20058;-75
2020/12/03 10:07:27;;;;;;;10.50;4.90;;;;;;;8.53;71.00;98013.66;3990695;31;15037890;-74
2020/12/03 10:10:33;;;;;;;6.80;4.00;;;;;;;8.53;71.00;98013.66;4447809;32;20075;-73
2020/12/03 10:18:42;;;;;;;6.15;3.62;;;;;;;8.28;71.35;97994.72;3978027;32;15021652;-73
2020/12/03 10:21:08;;;;;;;5.37;2.30;;;;;;;7.98;72.33;97977.22;4424822;32;20123;-78
2020/12/03 10:23:39;;;;;;;5.93;2.72;;;;;;;7.79;71.44;97975.16;4429182;32;20623;-75
2020/12/03 10:28:52;;;;;;;6.12;3.28;;;;;;;7.79;72.44;97958.37;3967628;32;15021688;-75
2020/12/03 10:31:20;;;;;;;5.90;3.53;;;;;;;7.76;73.13;97948.13;4419817;32;20067;-75
2020/12/03 10:33:49;;;;;;;7.55;3.37;;;;;;;7.84;73.47;97952.09;4417903;32;21293;-78
2020/12/03 10:36:40;;;;;;;5.40;4.07;;;;;;;7.72;72.78;97941.97;4418190;32;20050;-77
2020/12/03 10:39:08;;;;;;;4.93;3.53;;;;;;;7.71;73.69;97941.19;4421735;32;20152;-78
2020/12/03 10:41:38;;;;;;;7.00;3.10;;;;;;;7.82;73.61;97930.19;4420138;32;20085;-77
2020/12/03 10:44:14;;;;;;;5.07;3.10;;;;;;;7.80;72.90;97927.09;4418103;32;20069;-80
2020/12/03 10:46:46;;;;;;;3.90;3.10;;;;;;;7.66;73.00;97919.53;4417369;32;20078;-81
2020/12/03 10:49:15;;;;;;;5.53;3.37;;;;;;;7.71;73.08;97912.47;4422945;32;20074;-76
2020/12/03 10:51:43;;;;;;;5.07;2.85;;;;;;;7.73;73.01;97912.72;4416209;32;20018;-81
2020/12/03 10:54:10;;;;;;;5.05;2.95;;;;;;;7.96;72.69;97909.78;4402921;32;20056;-78
2020/12/03 10:56:38;;;;;;;4.47;3.28;;;;;;;7.66;73.06;97907.53;4405154;32;20096;-76
2020/12/03 11:01:43;;;;;;;9.60;3.28;;;;;;;8.00;72.31;97879.53;3967808;32;15027096;-79
2020/12/03 11:04:11;;;;;;;4.37;2.90;;;;;;;8.00;72.31;97879.53;4430657;32;20047;-77
2020/12/03 11:06:37;;;;;;;4.65;2.72;;;;;;;7.68;73.21;97868.66;4431359;32;20205;-76
2020/12/03 11:09:05;;;;;;;3.40;2.28;;;;;;;7.60;73.38;97861.91;4427193;32;20088;-78
2020/12/03 11:11:37;;;;;;;7.60;3.45;;;;;;;7.65;73.11;97850.81;4431005;32;20124;-84
2020/12/03 11:14:17;;;;;;;5.97;2.95;;;;;;;7.61;73.19;97844.66;4428568;32;20069;-78
2020/12/03 11:19:32;;;;;;;5.25;2.78;;;;;;;8.04;73.67;97810.06;3984470;31;15015241;-73
2020/12/03 11:24:49;;;;;;;4.37;2.65;;;;;;;7.45;74.96;97803.22;3978191;32;15024800;-75
2020/12/03 11:27:19;;;;;;;3.72;2.47;;;;;;;6.88;76.25;97793.75;4428150;32;20119;-74
2020/12/03 11:29:46;;;;;;;4.80;2.67;;;;;;;6.90;77.52;97787.69;4426995;32;20103;-76
2020/12/03 11:32:27;;;;;;;5.20;3.62;;;;;;;6.97;77.06;97781.69;4432166;32;20089;-75
2020/12/03 11:34:54;;;;;;;7.37;3.47;;;;;;;7.11;77.65;97769.69;4433261;32;20092;-76
2020/12/03 11:37:24;;;;;;;6.28;3.45;;;;;;;7.21;77.36;97757.12;4431380;32;20045;-76
2020/12/03 11:39:51;;;;;;;9.88;3.70;;;;;;;7.30;76.88;97754.22;4428583;32;20061;-73
2020/12/03 11:42:45;;;;;;;6.90;3.60;;;;;;;7.34;77.18;97752.72;4432056;32;20038;-74
2020/12/03 11:45:33;;;;;;;5.30;3.70;;;;;;;7.27;76.67;97741.94;4433624;32;20136;-74
2020/12/03 11:50:39;;;;;;;;;;;;;;;7.27;77.55;97718.84;4427093;32;20066;-76
2020/12/03 11:53:06;;;;;;;5.90;3.30;;;;;;;6.86;77.67;97714.44;4418049;32;20576;-75
2020/12/03 11:55:39;;;;;;;5.75;3.25;;;;;;;7.14;78.00;97707.97;4417579;32;20100;-76
2020/12/03 11:58:05;;;;;;;4.03;3.00;;;;;;;6.79;77.88;97696.06;4418696;32;20046;-77
2020/12/03 12:00:32;;;;;;;6.47;3.15;;;;;;;6.92;77.45;97684.53;4417856;32;20180;-76
2020/12/03 12:02:59;;;;;;;5.30;3.10;;;;;;;7.00;77.60;97682.88;4417672;32;20081;-76
2020/12/03 12:08:43;;;;;;;4.47;2.78;;;;;;;7.60;76.69;97664.03;3969386;32;15023571;-75
2020/12/03 12:13:31;;;;;;;5.00;3.17;;;;;;;7.86;76.09;97636.81;3982059;32;15024204;-79
2020/12/03 12:15:56;;;;;;;5.78;3.92;;;;;;;7.86;76.09;97636.81;4439590;32;20059;-75
2020/12/03 12:18:22;;;;;;;7.15;3.40;;;;;;;7.49;77.26;97627.53;4448091;32;20179;-77
2020/12/03 12:20:48;;;;;;;6.70;4.18;;;;;;;7.35;76.71;97620.03;4448313;32;20129;-76
2020/12/03 12:23:14;;;;;;;7.22;4.28;;;;;;;7.43;77.36;97614.75;4450150;32;20095;-74
2020/12/03 12:25:40;;;;;;;6.30;3.50;;;;;;;7.53;77.23;97597.34;4447832;32;20068;-75
2020/12/03 12:28:05;;;;;;;6.43;3.42;;;;;;;7.62;76.75;97607.59;4445422;32;20030;-74
2020/12/03 12:30:32;;;;;;;14.15;5.22;;;;;;;7.78;77.01;97606.97;4448867;32;20072;-74
2020/12/03 12:32:58;;;;;;;9.25;3.85;;;;;;;7.71;75.75;97590.63;4447938;32;20768;-77
2020/12/03 12:35:25;;;;;;;10.40;4.05;;;;;;;7.86;76.14;97589.22;4450347;32;20460;-75
2020/12/03 12:37:51;;;;;;;9.45;3.87;;;;;;;7.94;75.87;97584.72;4448440;32;20057;-78
2020/12/03 12:40:16;;;;;;;6.30;3.10;;;;;;;8.03;76.53;97578.16;4447507;32;20187;-74
2020/12/03 12:42:42;;;;;;;10.15;5.37;;;;;;;8.12;75.95;97575.19;4448153;32;20033;-75
2020/12/03 12:45:07;;;;;;;4.43;3.42;;;;;;;8.23;76.16;97575.28;4447055;32;20535;-77
2020/12/03 12:47:33;;;;;;;7.80;4.20;;;;;;;8.31;75.76;97556.00;4448225;32;20033;-74
2020/12/03 12:49:59;;;;;;;11.45;4.45;;;;;;;8.31;74.49;97550.41;4447074;32;20157;-75
2020/12/03 12:52:24;;;;;;;15.68;4.18;;;;;;;8.34;75.22;97546.59;4436812;32;20197;-75
2020/12/03 12:54:50;;;;;;;8.20;4.60;;;;;;;8.37;75.72;97537.94;4435838;32;20069;-74
2020/12/03 12:57:16;;;;;;;7.20;4.35;;;;;;;8.44;75.90;97536.72;4435760;32;20113;-73
2020/12/03 12:59:42;;;;;;;6.70;4.32;;;;;;;8.46;75.58;97529.34;4436047;32;20038;-76
2020/12/03 13:02:08;;;;;;;8.93;3.80;;;;;;;8.57;75.68;97515.38;4436451;32;20060;-72
2020/12/03 13:04:34;;;;;;;8.18;4.50;;;;;;;8.57;75.56;97509.00;4438071;32;20240;-75
2020/12/03 13:07:04;;;;;;;11.12;4.87;;;;;;;8.58;75.13;97502.13;4434900;32;20077;-75
2020/12/03 13:09:32;;;;;;;5.87;4.62;;;;;;;8.53;75.05;97495.22;4434282;32;20050;-76
2020/12/03 13:11:58;;;;;;;16.30;7.05;;;;;;;8.41;74.07;97492.87;4433520;32;20093;-78
2020/12/03 13:14:26;;;;;;;8.93;6.35;;;;;;;8.42;75.62;97486.00;4436000;32;20461;-74
2020/12/03 13:16:52;;;;;;;14.25;7.72;;;;;;;8.32;75.83;97473.50;4434932;32;20104;-76
2020/12/03 13:19:18;;;;;;;15.35;7.93;;;;;;;8.37;76.83;97465.09;4436513;32;20059;-76
2020/12/03 13:21:44;;;;;;;18.20;8.80;;;;;;;8.44;76.99;97458.25;4436773;32;20131;-79
2020/12/03 13:24:10;;;;;;;17.58;8.90;;;;;;;8.39;76.72;97448.56;4433102;32;20037;-74
2020/12/03 13:26:36;;;;;;;11.25;7.97;;;;;;;8.37;76.49;97447.53;4426199;32;20029;-77
2020/12/03 13:29:01;;;;;;;9.73;6.93;;;;;;;8.40;77.24;97436.09;4428388;32;20088;-78
2020/12/03 13:31:30;;;;;;;10.93;7.53;;;;;;;8.35;76.91;97439.66;4430849;32;20033;-78
2020/12/03 13:33:56;;;;;;;13.23;7.85;;;;;;;8.42;77.65;97427.19;4428445;32;20207;-77
2020/12/03 13:36:22;;;;;;;10.80;7.18;;;;;;;8.45;76.60;97417.75;4428403;32;20060;-81
2020/12/03 13:38:49;;;;;;;11.10;7.22;;;;;;;8.52;77.18;97408.87;4427739;32;20034;-78
2020/12/03 13:41:20;;;;;;;11.23;6.82;;;;;;;8.49;77.61;97415.47;4428058;32;20115;-75
2020/12/03 13:43:46;;;;;;;16.02;7.80;;;;;;;8.49;77.91;97410.66;4424763;32;20077;-75
2020/12/03 13:46:14;;;;;;;21.17;8.93;;;;;;;8.54;77.94;97395.91;4424192;32;20067;-74
2020/12/03 13:48:40;;;;;;;12.40;7.35;;;;;;;8.52;77.89;97384.41;4423504;32;20412;-77
2020/12/03 13:51:06;;;;;;;14.57;7.90;;;;;;;8.55;77.95;97374.22;4428767;32;20029;-73
2020/12/03 13:53:32;;;;;;;13.48;7.22;;;;;;;8.55;77.73;97375.00;4428210;32;20018;-75
2020/12/03 13:55:58;;;;;;;13.18;7.12;;;;;;;8.56;77.56;97370.91;4424990;32;20104;-78
2020/12/03 13:58:24;;;;;;;12.50;7.22;;;;;;;8.58;77.83;97371.19;4424633;32;20418;-77
2020/12/03 14:00:49;;;;;;;14.80;6.95;;;;;;;8.54;77.25;97353.88;4428976;32;20133;-74
2020/12/03 14:03:16;;;;;;;15.40;7.03;;;;;;;8.46;77.26;97347.22;4427447;32;20034;-76
2020/12/03 14:05:42;;;;;;;13.43;6.97;;;;;;;8.46;77.80;97343.63;4424240;32;20358;-77
2020/12/03 14:08:09;;;;;;;13.32;6.28;;;;;;;8.45;78.19;97336.50;4426613;32;20100;-76